Time;durP1;ratioP1;P1;durP2;ratioP2;P2;SDS_P1;SDS_P2;PMS_P1;PMS_P2;Temp;Humidity;BMP_temperature;BMP_pressure;BME280_temperature;BME280_humidity;BME280_pressure;Samples;Min_cycle;Max_cycle;Signal;HPM_P1;HPM_P2
2023/06/05 00:00:14;;;;;;;5.03;2.90;;;;;;;11.96;69.78;99690.34;5098064;28;20502;-63
2023/06/05 00:02:42;;;;;;;5.00;3.10;;;;;;;11.89;66.97;99686.97;5094992;28;20382;-64
2023/06/05 00:05:10;;;;;;;6.07;2.90;;;;;;;11.68;68.17;99686.53;5100505;28;20043;-63
2023/06/05 00:07:39;;;;;;;4.50;2.78;;;;;;;11.73;67.00;99689.34;5098545;28;20040;-63
2023/06/05 00:10:07;;;;;;;6.32;3.20;;;;;;;11.90;66.48;99684.03;5101108;28;20237;-63
2023/06/05 00:12:34;;;;;;;6.57;3.10;;;;;;;11.73;71.33;99689.34;5096201;28;20040;-64
2023/06/05 00:15:04;;;;;;;5.65;3.00;;;;;;;11.64;68.03;99690.75;5105187;28;20058;-64
2023/06/05 00:17:32;;;;;;;5.10;3.08;;;;;;;11.65;67.90;99692.38;5099312;28;20051;-64
2023/06/05 00:19:59;;;;;;;5.90;3.10;;;;;;;11.61;68.29;99692.06;5101991;28;20514;-63
2023/06/05 00:22:28;;;;;;;8.20;3.47;;;;;;;11.77;66.63;99690.47;5101343;28;20040;-64
2023/06/05 00:24:55;;;;;;;6.43;3.20;;;;;;;11.71;67.14;99682.56;5094983;28;20047;-63
2023/06/05 00:27:22;;;;;;;7.90;3.17;;;;;;;11.90;65.74;99688.59;5099898;28;20040;-63
2023/06/05 00:29:50;;;;;;;9.88;3.00;;;;;;;11.85;68.02;99687.41;5105309;28;20412;-63
2023/06/05 00:32:19;;;;;;;6.28;3.33;;;;;;;11.39;70.21;99678.44;5103119;28;20130;-63
2023/06/05 00:34:49;;;;;;;4.85;3.15;;;;;;;11.13;71.86;99679.78;5104589;28;20040;-63
2023/06/05 00:37:17;;;;;;;4.50;2.88;;;;;;;11.10;71.79;99679.41;5093841;28;20131;-63
2023/06/05 00:39:45;;;;;;;5.63;3.28;;;;;;;11.23;71.48;99680.00;5099579;28;20039;-63
2023/06/05 00:42:12;;;;;;;5.20;3.00;;;;;;;11.24;71.21;99680.81;5094245;28;20039;-63
2023/06/05 00:44:41;;;;;;;8.02;3.30;;;;;;;11.10;72.10;99674.88;5103322;28;20562;-63
2023/06/05 00:47:09;;;;;;;7.63;3.30;;;;;;;11.14;72.73;99677.91;5099280;28;20040;-63
2023/06/05 00:49:38;;;;;;;4.70;2.90;;;;;;;11.00;71.13;99677.31;5104466;28;20572;-63
2023/06/05 00:52:06;;;;;;;9.63;3.38;;;;;;;11.13;70.28;99679.78;5096725;28;20132;-62
2023/06/05 00:54:36;;;;;;;5.65;3.10;;;;;;;11.24;70.14;99675.44;5100240;28;20040;-63
2023/06/05 00:57:04;;;;;;;5.45;3.38;;;;;;;11.25;70.62;99674.38;5102391;28;20044;-62
2023/06/05 00:59:31;;;;;;;4.78;3.03;;;;;;;11.19;71.45;99675.34;5102731;28;20047;-63
2023/06/05 01:02:01;;;;;;;6.53;3.30;;;;;;;11.20;69.22;99679.63;5103134;28;20482;-63
2023/06/05 01:04:29;;;;;;;9.10;3.13;;;;;;;11.48;68.71;99670.00;5098140;28;20051;-63
2023/06/05 01:07:01;;;;;;;4.72;2.90;;;;;;;11.44;70.32;99670.50;5097134;28;20063;-63
2023/06/05 01:09:28;;;;;;;7.22;3.17;;;;;;;11.37;69.19;99666.31;5098900;28;20512;-63
2023/06/05 01:11:59;;;;;;;7.50;3.10;;;;;;;11.22;69.10;99672.97;5075808;28;20079;-63
2023/06/05 01:14:30;;;;;;;6.60;3.20;;;;;;;11.07;69.20;99672.66;5097859;28;20051;-65
2023/06/05 01:17:00;;;;;;;10.68;2.72;;;;;;;11.06;69.83;99672.88;5093350;28;20043;-63
2023/06/05 01:19:28;;;;;;;6.38;3.30;;;;;;;11.00;69.44;99674.63;5103025;28;20043;-64
2023/06/05 01:21:59;;;;;;;7.13;3.00;;;;;;;11.08;68.53;99665.41;5098921;28;20051;-63
2023/06/05 01:24:28;;;;;;;5.97;3.03;;;;;;;11.25;67.25;99662.84;5101880;28;20657;-63
2023/06/05 01:27:03;;;;;;;7.75;2.90;;;;;;;11.10;67.96;99663.31;5095124;28;20052;-65
2023/06/05 01:29:34;;;;;;;5.43;3.03;;;;;;;11.10;68.95;99663.31;5099645;28;20394;-64
2023/06/05 01:32:06;;;;;;;5.57;2.70;;;;;;;10.98;68.60;99655.28;5104666;28;20080;-63
2023/06/05 01:34:33;;;;;;;6.22;2.90;;;;;;;11.10;68.85;99657.97;5094128;28;20047;-64
2023/06/05 01:37:01;;;;;;;6.15;2.80;;;;;;;10.94;69.82;99654.94;5104134;28;20047;-64
2023/06/05 01:39:30;;;;;;;4.30;2.65;;;;;;;10.84;70.43;99651.22;5095668;28;20101;-65
2023/06/05 01:41:58;;;;;;;6.50;2.90;;;;;;;10.58;72.59;99655.97;5098477;28;20169;-64
2023/06/05 01:44:27;;;;;;;8.65;3.15;;;;;;;10.61;73.17;99649.34;5099199;28;20516;-64
2023/06/05 01:46:55;;;;;;;7.28;3.00;;;;;;;10.64;72.28;99654.25;5089843;28;20042;-64
2023/06/05 01:49:23;;;;;;;4.18;2.50;;;;;;;10.52;71.35;99644.31;5101911;28;20118;-62
2023/06/05 01:51:50;;;;;;;6.18;2.97;;;;;;;10.52;71.09;99641.66;5098483;28;20042;-62
2023/06/05 01:54:18;;;;;;;4.53;2.92;;;;;;;10.66;72.50;99641.41;5104169;28;20042;-62
2023/06/05 01:56:49;;;;;;;5.53;2.63;;;;;;;10.71;70.42;99642.38;5104520;28;20091;-62
2023/06/05 01:59:16;;;;;;;8.32;3.80;;;;;;;10.59;70.86;99641.53;5094106;28;20138;-62
2023/06/05 02:01:45;;;;;;;5.80;2.83;;;;;;;10.61;69.70;99638.59;5093637;28;20442;-62
2023/06/05 02:04:16;;;;;;;5.75;2.90;;;;;;;10.67;70.25;99643.06;5100526;28;20513;-62
2023/06/05 02:06:45;;;;;;;6.10;2.70;;;;;;;10.78;71.31;99634.19;5092910;28;20132;-62
2023/06/05 02:09:13;;;;;;;6.10;3.17;;;;;;;10.65;69.52;99632.56;5104286;28;20051;-62
2023/06/05 02:11:42;;;;;;;5.13;2.88;;;;;;;10.68;68.94;99640.13;5097542;28;20043;-64
2023/06/05 02:14:13;;;;;;;7.93;2.95;;;;;;;10.73;73.09;99628.72;5101127;28;20545;-62
2023/06/05 02:16:41;;;;;;;6.90;3.22;;;;;;;10.56;70.84;99640.16;5104081;28;20511;-62
2023/06/05 02:19:09;;;;;;;5.32;2.92;;;;;;;10.48;71.84;99637.81;5103620;28;20044;-63
2023/06/05 02:21:36;;;;;;;5.25;2.95;;;;;;;10.26;73.82;99636.69;5094196;28;20123;-63
2023/06/05 02:24:04;;;;;;;4.93;2.97;;;;;;;9.84;76.04;99634.03;5102059;27;20039;-62
2023/06/05 02:26:32;;;;;;;8.93;2.97;;;;;;;10.05;73.26;99635.34;5104534;27;20039;-62
2023/06/05 02:28:59;;;;;;;6.07;2.65;;;;;;;10.14;72.50;99640.16;5111153;27;20501;-64
2023/06/05 02:31:33;;;;;;;6.55;2.90;;;;;;;10.19;74.17;99636.78;5111183;28;20105;-64
2023/06/05 02:34:01;;;;;;;8.95;2.85;;;;;;;10.13;73.82;99633.19;5101292;28;20765;-65
2023/06/05 02:36:32;;;;;;;6.00;3.00;;;;;;;10.09;72.04;99636.53;5108272;27;20042;-63
2023/06/05 02:39:04;;;;;;;6.32;3.35;;;;;;;10.19;73.34;99641.34;5107922;28;20426;-64
2023/06/05 02:41:32;;;;;;;9.15;3.00;;;;;;;10.01;73.45;99634.16;5109314;28;20047;-64
2023/06/05 02:44:00;;;;;;;5.25;2.75;;;;;;;9.90;74.63;99633.09;5113281;27;20157;-64
2023/06/05 02:46:29;;;;;;;6.45;3.08;;;;;;;9.92;74.62;99639.06;5107147;27;20040;-64
2023/06/05 02:48:56;;;;;;;4.80;2.90;;;;;;;9.75;74.80;99630.03;5102444;28;20047;-63
2023/06/05 02:51:25;;;;;;;4.75;2.83;;;;;;;9.71;74.73;99630.50;5109531;28;20399;-63
2023/06/05 02:53:53;;;;;;;4.45;2.60;;;;;;;9.78;75.10;99640.28;5101317;28;20043;-64
2023/06/05 02:56:21;;;;;;;6.13;3.28;;;;;;;9.70;74.17;99630.69;5100669;28;20044;-64
2023/06/05 02:58:49;;;;;;;6.53;3.10;;;;;;;9.72;73.66;99625.94;5107885;28;20614;-63
2023/06/05 03:01:17;;;;;;;4.40;2.75;;;;;;;10.00;72.82;99617.28;5102745;28;20039;-63
2023/06/05 03:03:48;;;;;;;5.82;2.90;;;;;;;10.05;72.45;99627.31;5104190;28;20585;-64
2023/06/05 03:06:18;;;;;;;6.72;3.10;;;;;;;9.84;73.48;99629.47;5110716;28;20039;-64
2023/06/05 03:08:48;;;;;;;;;;;;;;;10.05;73.44;99630.00;5111683;28;20062;-64
2023/06/05 03:11:20;;;;;;;4.65;2.92;;;;;;;9.93;73.32;99628.13;5086692;28;19924;-63
2023/06/05 03:13:47;;;;;;;6.18;2.80;;;;;;;9.90;73.23;99623.19;5110218;28;20469;-64
2023/06/05 03:16:17;;;;;;;5.00;3.00;;;;;;;9.84;73.76;99626.00;5106486;28;20047;-64
2023/06/05 03:18:51;;;;;;;5.47;3.20;;;;;;;9.65;75.95;99625.22;5100299;28;20055;-64
2023/06/05 03:21:19;;;;;;;4.97;2.83;;;;;;;9.35;77.93;99620.66;5101949;28;20482;-65
2023/06/05 03:23:46;;;;;;;8.65;2.78;;;;;;;9.33;78.24;99620.06;5091082;28;20076;-65
2023/06/05 03:26:15;;;;;;;6.57;3.15;;;;;;;9.27;78.81;99611.06;5102191;28;20043;-64
2023/06/05 03:28:43;;;;;;;5.28;2.80;;;;;;;9.50;82.13;99617.59;5099090;28;20429;-64
2023/06/05 03:31:12;;;;;;;5.00;2.90;;;;;;;9.50;77.88;99620.25;5103653;28;20044;-64
2023/06/05 03:33:45;;;;;;;3.65;2.30;;;;;;;9.74;77.62;99621.19;5098975;28;20491;-63
2023/06/05 03:36:17;;;;;;;9.27;2.80;;;;;;;9.95;73.73;99619.84;5077425;28;20059;-64
2023/06/05 03:38:45;;;;;;;5.75;2.78;;;;;;;10.56;72.19;99623.25;5120784;27;20039;-64
2023/06/05 03:41:13;;;;;;;6.55;2.95;;;;;;;11.02;69.39;99627.75;5086520;28;20093;-64
2023/06/05 03:43:41;;;;;;;5.70;2.70;;;;;;;11.34;67.63;99627.34;5099155;28;20050;-64
2023/06/05 03:46:10;;;;;;;6.53;2.97;;;;;;;11.80;68.47;99625.53;5105870;28;20056;-64
2023/06/05 03:48:38;;;;;;;4.53;2.70;;;;;;;12.07;65.88;99628.47;5099244;28;20605;-64
2023/06/05 03:51:06;;;;;;;6.40;2.53;;;;;;;12.36;64.86;99630.31;5100067;28;20050;-64
2023/06/05 03:53:34;;;;;;;4.10;2.63;;;;;;;12.82;61.46;99641.75;5102764;28;20409;-64
2023/06/05 03:56:03;;;;;;;5.73;2.70;;;;;;;12.95;62.17;99636.00;5096732;28;20489;-63
2023/06/05 03:58:38;;;;;;;6.05;2.85;;;;;;;13.73;59.51;99636.75;5097763;28;20332;-64
2023/06/05 04:01:05;;;;;;;5.75;2.55;;;;;;;13.50;58.90;99643.19;5088242;28;20056;-64
2023/06/05 04:03:36;;;;;;;6.47;2.60;;;;;;;14.13;57.34;99643.59;5096681;28;20064;-64
2023/06/05 04:06:04;;;;;;;5.32;2.95;;;;;;;13.59;59.98;99647.09;5102319;28;20088;-64
2023/06/05 04:08:32;;;;;;;5.72;3.10;;;;;;;14.73;55.95;99647.09;5101387;28;20052;-63
2023/06/05 04:11:01;;;;;;;5.38;2.60;;;;;;;15.72;52.22;99650.84;5100986;28;20047;-63
2023/06/05 04:13:29;;;;;;;7.32;3.22;;;;;;;15.37;52.92;99656.06;5097301;28;20414;-63
2023/06/05 04:15:57;;;;;;;6.32;2.75;;;;;;;15.95;51.36;99657.66;5099347;28;20410;-63
2023/06/05 04:18:25;;;;;;;8.10;2.95;;;;;;;15.93;51.82;99650.88;5099596;28;20036;-63
2023/06/05 04:20:55;;;;;;;12.75;3.28;;;;;;;16.44;49.93;99656.34;5105957;28;20050;-63
2023/06/05 04:23:23;;;;;;;6.22;2.80;;;;;;;16.01;51.86;99658.47;5094960;28;20075;-64
2023/06/05 04:25:51;;;;;;;5.82;2.58;;;;;;;15.48;52.58;99655.03;5098203;28;20086;-64
2023/06/05 04:28:20;;;;;;;6.20;2.85;;;;;;;17.04;49.49;99660.06;5101298;28;20089;-64
2023/06/05 04:30:47;;;;;;;6.05;3.00;;;;;;;17.71;48.25;99667.97;5102512;28;20123;-63
2023/06/05 04:33:18;;;;;;;6.25;2.97;;;;;;;17.96;47.89;99663.53;5093583;28;20079;-63
2023/06/05 04:35:46;;;;;;;6.20;2.90;;;;;;;18.13;46.36;99661.25;5107371;28;20093;-63
2023/06/05 04:38:14;;;;;;;9.07;2.63;;;;;;;19.06;45.07;99670.25;5095150;28;20105;-63
2023/06/05 04:40:44;;;;;;;;;;;;;;;18.64;45.33;99668.97;5096678;28;20040;-64
2023/06/05 04:43:11;;;;;;;5.90;2.80;;;;;;;18.25;45.97;99667.13;5098747;28;20026;-63
2023/06/05 04:45:41;;;;;;;7.53;2.97;;;;;;;17.80;46.48;99669.06;5098896;28;20055;-63
2023/06/05 04:48:09;;;;;;;4.85;2.95;;;;;;;18.46;45.33;99661.53;5096141;27;20043;-64
2023/06/05 04:50:37;;;;;;;4.70;2.90;;;;;;;19.05;44.46;99663.19;5102881;28;20070;-64
2023/06/05 04:53:12;;;;;;;8.00;2.70;;;;;;;19.10;44.84;99660.44;5103417;28;20061;-64
2023/06/05 04:55:41;;;;;;;7.45;2.92;;;;;;;20.15;43.12;99654.22;5100041;28;20051;-64
2023/06/05 04:58:09;;;;;;;5.97;2.90;;;;;;;20.31;42.52;99661.03;5107320;28;20035;-64
2023/06/05 05:00:36;;;;;;;5.63;3.08;;;;;;;21.05;40.66;99660.34;5102395;28;20515;-64
2023/06/05 05:03:08;;;;;;;9.55;2.85;;;;;;;20.24;42.04;99669.59;5090075;28;20055;-64
2023/06/05 05:05:36;;;;;;;6.40;2.85;;;;;;;20.84;41.04;99671.63;5098942;28;20054;-64
2023/06/05 05:08:04;;;;;;;8.52;3.00;;;;;;;20.76;41.60;99672.28;5097408;28;20044;-63
2023/06/05 05:10:32;;;;;;;6.80;2.90;;;;;;;21.04;40.79;99666.88;5096762;28;20044;-64
2023/06/05 05:13:01;;;;;;;6.50;2.58;;;;;;;19.81;44.26;99668.84;5093374;28;20051;-64
2023/06/05 05:15:29;;;;;;;7.97;3.10;;;;;;;21.68;40.90;99675.19;5098125;28;20052;-62
2023/06/05 05:17:57;;;;;;;9.70;3.40;;;;;;;22.16;39.73;99675.47;5107211;28;20402;-64
2023/06/05 05:20:27;;;;;;;6.40;2.88;;;;;;;21.93;39.78;99673.84;5097663;28;20048;-63
2023/06/05 05:22:55;;;;;;;7.47;3.08;;;;;;;22.90;38.37;99670.72;5116685;27;20036;-64
2023/06/05 05:25:23;;;;;;;8.32;2.58;;;;;;;22.01;39.46;99675.81;5100592;28;20133;-64
2023/06/05 05:27:52;;;;;;;8.68;2.90;;;;;;;22.05;39.30;99673.31;5095998;28;20043;-65
2023/06/05 05:30:20;;;;;;;11.82;2.80;;;;;;;22.72;38.23;99678.00;5102943;28;20055;-64
2023/06/05 05:32:48;;;;;;;14.05;2.80;;;;;;;23.17;38.24;99669.75;5096395;28;20040;-64
2023/06/05 05:35:16;;;;;;;9.77;3.45;;;;;;;23.09;38.33;99668.59;5102762;28;20106;-64
2023/06/05 05:37:45;;;;;;;5.43;2.75;;;;;;;22.79;38.48;99672.91;5092966;28;20667;-64
2023/06/05 05:40:13;;;;;;;8.90;2.90;;;;;;;22.62;39.23;99670.88;5100618;28;20067;-64
2023/06/05 05:42:42;;;;;;;8.13;2.63;;;;;;;22.95;38.51;99665.91;5102255;28;20571;-62
2023/06/05 05:45:10;;;;;;;8.32;3.38;;;;;;;23.10;39.29;99674.84;5100969;28;20607;-64
2023/06/05 05:47:38;;;;;;;11.82;3.10;;;;;;;23.56;38.02;99674.34;5096178;28;20043;-64
2023/06/05 05:50:06;;;;;;;13.55;3.42;;;;;;;23.75;37.39;99676.84;5098930;28;20062;-64
2023/06/05 05:52:34;;;;;;;12.10;3.00;;;;;;;24.25;35.84;99670.91;5105148;28;20513;-64
2023/06/05 05:55:03;;;;;;;18.25;3.70;;;;;;;23.76;36.02;99681.19;5100200;28;20067;-63
2023/06/05 05:57:33;;;;;;;15.18;3.30;;;;;;;23.52;37.92;99678.06;5096680;28;20403;-63
2023/06/05 06:00:01;;;;;;;18.27;3.20;;;;;;;24.01;38.07;99679.63;5101213;28;20044;-62
2023/06/05 06:02:39;;;;;;;24.73;3.78;;;;;;;24.69;34.39;99679.13;5102738;28;20047;-62
2023/06/05 06:05:10;;;;;;;23.10;3.63;;;;;;;21.97;40.72;99683.81;5097572;28;20347;-62
2023/06/05 06:07:40;;;;;;;25.42;3.95;;;;;;;23.39;37.46;99682.53;5099618;28;20039;-62
2023/06/05 06:10:12;;;;;;;32.92;5.05;;;;;;;24.26;35.05;99682.66;5102563;28;20051;-62
2023/06/05 06:12:40;;;;;;;19.60;3.97;;;;;;;25.67;33.48;99691.00;5102101;28;20078;-62
2023/06/05 06:15:09;;;;;;;37.75;4.47;;;;;;;24.31;35.78;99686.06;5100515;28;20158;-62
2023/06/05 06:17:37;;;;;;;38.95;5.05;;;;;;;23.42;36.87;99681.91;5101513;28;20039;-62
2023/06/05 06:20:05;;;;;;;39.80;5.07;;;;;;;23.99;36.73;99681.03;5103769;28;20539;-62
2023/06/05 06:22:32;;;;;;;31.60;4.88;;;;;;;23.63;36.83;99682.91;5102975;28;20040;-62
2023/06/05 06:25:01;;;;;;;44.15;5.03;;;;;;;24.23;35.86;99675.91;5094060;28;20048;-62
2023/06/05 06:27:30;;;;;;;25.23;4.22;;;;;;;25.61;33.88;99686.88;5097233;28;20097;-61
2023/06/05 06:29:58;;;;;;;39.50;4.65;;;;;;;22.61;37.39;99685.63;5105729;28;20052;-64
2023/06/05 06:32:26;;;;;;;40.33;4.88;;;;;;;22.05;39.64;99684.22;5092963;28;20071;-63
2023/06/05 06:34:55;;;;;;;36.05;4.05;;;;;;;23.39;36.45;99688.00;5096617;28;20048;-63
2023/06/05 06:37:22;;;;;;;20.33;4.40;;;;;;;23.39;38.00;99686.06;5094718;28;20040;-63
2023/06/05 06:39:52;;;;;;;26.17;3.90;;;;;;;25.22;34.81;99686.09;5093992;28;20092;-63
2023/06/05 06:42:20;;;;;;;25.25;3.63;;;;;;;23.52;37.08;99691.75;5098857;28;20051;-63
2023/06/05 06:45:05;;;;;;;23.48;4.53;;;;;;;24.46;36.07;99690.28;5097819;28;20051;-63
2023/06/05 06:47:32;;;;;;;19.80;4.07;;;;;;;24.66;35.60;99687.97;5096142;28;20048;-63
2023/06/05 06:50:00;;;;;;;24.60;4.63;;;;;;;25.41;34.40;99685.69;5098964;28;20043;-63
2023/06/05 06:52:27;;;;;;;21.95;4.30;;;;;;;24.19;36.03;99683.19;5097423;28;20047;-63
2023/06/05 06:54:55;;;;;;;26.00;4.47;;;;;;;23.84;37.43;99693.28;5100200;28;20046;-63
2023/06/05 06:57:22;;;;;;;21.50;4.15;;;;;;;23.95;37.07;99700.06;5099043;28;20098;-64
2023/06/05 06:59:49;;;;;;;15.57;3.50;;;;;;;23.60;37.96;99693.69;5098587;28;20128;-64
2023/06/05 07:02:19;;;;;;;24.17;4.20;;;;;;;25.06;35.56;99691.28;5090470;28;20051;-64
2023/06/05 07:04:48;;;;;;;16.45;3.40;;;;;;;23.76;37.48;99694.06;5105452;28;20371;-64
2023/06/05 07:07:16;;;;;;;14.00;3.13;;;;;;;22.75;39.64;99682.84;5099015;28;20044;-64
2023/06/05 07:09:44;;;;;;;26.17;3.80;;;;;;;25.90;34.51;99690.75;5095590;28;20040;-62
2023/06/05 07:12:12;;;;;;;18.65;3.92;;;;;;;25.42;35.70;99687.28;5094882;28;20423;-62
2023/06/05 07:14:40;;;;;;;24.67;4.10;;;;;;;26.61;33.96;99689.84;5103270;28;20413;-64
2023/06/05 07:17:07;;;;;;;25.33;4.03;;;;;;;27.15;33.08;99681.47;5102925;28;20055;-62
2023/06/05 07:19:36;;;;;;;27.05;4.30;;;;;;;25.72;35.08;99688.06;5101270;28;20094;-62
2023/06/05 07:22:05;;;;;;;16.00;3.42;;;;;;;25.56;35.25;99693.34;5097162;28;20055;-62
2023/06/05 07:24:32;;;;;;;34.10;4.57;;;;;;;25.86;33.40;99687.88;5100723;28;20048;-63
2023/06/05 07:27:01;;;;;;;18.00;3.30;;;;;;;25.45;34.01;99689.34;5096655;28;20463;-62
2023/06/05 07:29:29;;;;;;;12.25;3.00;;;;;;;25.81;32.16;99693.53;5096438;28;20051;-62
2023/06/05 07:31:57;;;;;;;23.67;3.55;;;;;;;24.08;35.59;99687.34;5103346;28;20050;-62
2023/06/05 07:34:25;;;;;;;30.35;4.05;;;;;;;25.40;34.26;99692.28;5102087;28;20136;-62
2023/06/05 07:36:55;;;;;;;15.90;3.17;;;;;;;25.39;33.58;99687.94;5107818;28;20048;-62
2023/06/05 07:39:22;;;;;;;20.05;3.08;;;;;;;26.09;33.39;99693.03;5101387;28;20064;-62
2023/06/05 07:41:50;;;;;;;11.65;3.13;;;;;;;25.21;33.36;99689.97;5100636;28;20070;-62
2023/06/05 07:44:18;;;;;;;14.90;2.75;;;;;;;26.30;31.90;99693.00;5104276;28;20397;-63
2023/06/05 07:46:47;;;;;;;10.18;3.13;;;;;;;26.25;32.55;99694.03;5102324;28;20458;-62
2023/06/05 07:49:15;;;;;;;10.23;3.20;;;;;;;27.14;32.14;99693.63;5101506;27;20493;-64
2023/06/05 07:51:43;;;;;;;10.93;3.03;;;;;;;27.09;31.18;99693.88;5104461;28;20032;-63
2023/06/05 07:54:12;;;;;;;15.83;3.07;;;;;;;25.09;34.14;99687.06;5101157;28;20075;-63
2023/06/05 07:56:40;;;;;;;11.25;3.28;;;;;;;26.98;31.70;99687.97;5099890;28;20085;-63
2023/06/05 07:59:08;;;;;;;13.13;2.72;;;;;;;27.10;31.62;99676.19;5097685;28;20054;-63
2023/06/05 08:01:36;;;;;;;14.25;3.10;;;;;;;25.62;33.74;99672.00;5103997;28;20059;-63
2023/06/05 08:04:04;;;;;;;12.93;3.10;;;;;;;26.68;32.37;99670.84;5098248;28;20044;-63
2023/06/05 08:06:31;;;;;;;6.53;2.53;;;;;;;25.11;33.20;99671.06;5103441;28;20054;-63
2023/06/05 08:08:59;;;;;;;10.15;2.90;;;;;;;27.34;30.45;99672.72;5103906;28;20138;-63
2023/06/05 08:11:29;;;;;;;8.75;3.13;;;;;;;26.88;31.20;99674.69;5099511;28;20040;-63
2023/06/05 08:13:56;;;;;;;10.50;2.75;;;;;;;27.36;30.42;99670.41;5103378;28;20039;-63
2023/06/05 08:16:24;;;;;;;8.68;2.50;;;;;;;27.90;29.83;99661.06;5100699;28;20047;-63
2023/06/05 08:18:52;;;;;;;9.57;2.50;;;;;;;24.92;30.99;99666.00;5102591;28;20040;-63
2023/06/05 08:21:20;;;;;;;9.25;2.95;;;;;;;25.13;32.82;99672.34;5101678;28;20561;-64
2023/06/05 08:23:47;;;;;;;15.75;3.28;;;;;;;26.44;30.59;99672.34;5105608;28;20126;-63
2023/06/05 08:26:14;;;;;;;11.60;3.25;;;;;;;25.35;32.03;99667.78;5105988;28;20056;-63
2023/06/05 08:28:43;;;;;;;13.90;2.90;;;;;;;26.54;30.34;99667.63;5097737;28;20052;-63
2023/06/05 08:31:11;;;;;;;19.08;2.97;;;;;;;25.57;31.14;99674.94;5099806;28;20100;-62
2023/06/05 08:33:39;;;;;;;16.92;3.35;;;;;;;26.51;31.77;99668.25;5083453;28;20344;-62
2023/06/05 08:36:06;;;;;;;8.95;2.45;;;;;;;25.61;31.90;99671.19;5102037;28;20051;-61
2023/06/05 08:38:34;;;;;;;16.88;3.00;;;;;;;26.19;30.41;99670.66;5101983;28;20043;-61
2023/06/05 08:41:02;;;;;;;8.90;2.65;;;;;;;24.77;31.78;99669.28;5102516;27;20055;-62
2023/06/05 08:43:30;;;;;;;10.95;2.90;;;;;;;24.31;32.69;99658.69;5100389;28;20161;-62
2023/06/05 08:45:59;;;;;;;9.15;2.80;;;;;;;23.57;33.81;99661.50;5100330;27;20058;-63
2023/06/05 08:48:26;;;;;;;9.90;2.65;;;;;;;24.82;33.15;99658.13;5096759;28;20044;-63
2023/06/05 08:50:54;;;;;;;6.93;2.42;;;;;;;23.82;33.66;99660.75;5096989;28;20462;-63
2023/06/05 08:53:22;;;;;;;7.72;2.60;;;;;;;25.37;32.66;99657.28;5094863;28;20573;-63
2023/06/05 08:55:54;;;;;;;11.65;3.28;;;;;;;24.23;34.04;99662.22;5101403;28;20494;-63
2023/06/05 08:58:21;;;;;;;11.63;2.60;;;;;;;24.63;33.15;99664.78;5100679;28;20039;-63
2023/06/05 09:00:52;;;;;;;10.80;3.00;;;;;;;24.26;33.55;99658.84;5097748;28;20051;-63
2023/06/05 09:03:21;;;;;;;11.55;2.90;;;;;;;23.99;35.08;99659.16;5094073;28;20390;-63
2023/06/05 09:05:48;;;;;;;14.40;2.80;;;;;;;23.86;34.57;99667.22;5094727;28;20043;-63
2023/06/05 09:08:16;;;;;;;7.85;2.63;;;;;;;24.52;34.48;99653.34;5098070;28;20572;-63
2023/06/05 09:10:45;;;;;;;10.52;2.78;;;;;;;25.19;33.84;99659.31;5101420;28;20048;-63
2023/06/05 09:13:13;;;;;;;11.38;3.63;;;;;;;25.46;32.09;99660.81;5100595;28;20363;-64
2023/06/05 09:15:42;;;;;;;10.60;2.80;;;;;;;24.26;33.86;99661.59;5098529;28;20048;-64
2023/06/05 09:18:10;;;;;;;17.90;3.00;;;;;;;25.26;33.54;99658.78;5102595;28;20100;-63
2023/06/05 09:20:40;;;;;;;11.10;3.05;;;;;;;23.41;35.99;99642.81;5097359;28;20569;-62
2023/06/05 09:23:24;;;;;;;14.73;3.33;;;;;;;24.04;34.77;99659.03;5098491;28;20517;-63
2023/06/05 09:25:52;;;;;;;9.80;2.53;;;;;;;24.89;33.96;99652.94;5098926;28;20398;-63
2023/06/05 09:28:20;;;;;;;10.52;2.70;;;;;;;24.03;34.54;99643.69;5093670;28;20123;-62
2023/06/05 09:30:57;;;;;;;7.25;2.90;;;;;;;24.66;33.69;99644.97;5096163;28;20077;-62
2023/06/05 09:33:25;;;;;;;9.38;2.80;;;;;;;24.01;35.88;99643.22;5098838;28;20602;-62
2023/06/05 09:36:08;;;;;;;12.02;2.78;;;;;;;24.78;35.32;99641.53;5094567;28;20043;-63
2023/06/05 09:38:35;;;;;;;8.82;2.55;;;;;;;25.41;33.25;99650.00;5100554;28;20056;-62
2023/06/05 09:41:04;;;;;;;11.52;2.90;;;;;;;24.42;34.77;99636.44;5098431;28;20047;-63
2023/06/05 09:43:32;;;;;;;12.60;2.92;;;;;;;25.51;34.19;99632.34;5101770;28;20054;-62
2023/06/05 09:46:00;;;;;;;11.88;3.03;;;;;;;23.73;36.47;99639.97;5099568;28;20051;-63
2023/06/05 09:48:27;;;;;;;13.52;2.60;;;;;;;25.79;33.95;99638.16;5098585;28;20059;-63
2023/06/05 09:50:55;;;;;;;6.63;2.42;;;;;;;25.43;33.76;99639.50;5093726;28;20604;-63
2023/06/05 09:53:24;;;;;;;5.20;2.42;;;;;;;25.91;33.30;99638.25;5095841;28;20075;-63
2023/06/05 09:55:51;;;;;;;9.77;2.47;;;;;;;25.99;32.85;99631.88;5104528;28;20097;-63
2023/06/05 09:58:19;;;;;;;6.85;2.50;;;;;;;26.74;32.05;99639.25;5105380;28;20151;-63
2023/06/05 10:00:46;;;;;;;7.45;2.60;;;;;;;26.82;31.42;99634.81;5093232;28;20079;-63
2023/06/05 10:03:16;;;;;;;5.70;2.72;;;;;;;27.00;30.91;99624.41;5092568;28;20093;-63
2023/06/05 10:05:44;;;;;;;6.47;2.42;;;;;;;24.79;33.43;99629.44;5102201;28;20410;-63
2023/06/05 10:08:12;;;;;;;11.23;2.78;;;;;;;24.70;34.61;99625.91;5102896;28;20070;-62
2023/06/05 10:10:41;;;;;;;7.15;2.75;;;;;;;26.37;32.50;99619.88;5102328;28;20127;-63
2023/06/05 10:13:10;;;;;;;7.07;2.50;;;;;;;26.38;32.34;99621.47;5100060;28;20051;-63
2023/06/05 10:15:38;;;;;;;11.75;3.20;;;;;;;25.98;33.16;99612.97;5097720;28;20125;-63
2023/06/05 10:18:06;;;;;;;4.73;2.40;;;;;;;25.17;33.27;99620.44;5098592;28;20142;-63
2023/06/05 10:20:34;;;;;;;3.72;2.22;;;;;;;24.91;33.34;99620.50;5096012;28;20046;-61
2023/06/05 10:23:02;;;;;;;9.73;2.88;;;;;;;24.91;33.99;99615.03;5099253;28;20078;-62
2023/06/05 10:25:30;;;;;;;6.28;2.80;;;;;;;24.53;34.09;99615.81;5098620;28;20036;-63
2023/06/05 10:28:08;;;;;;;6.35;2.80;;;;;;;23.20;34.10;99617.94;5105480;28;20047;-63
2023/06/05 10:31:11;;;;;;;7.53;2.30;;;;;;;24.32;34.18;99616.47;5096307;28;20052;-63
2023/06/05 10:33:51;;;;;;;6.78;2.47;;;;;;;23.93;33.48;99608.44;5099227;28;20048;-63
2023/06/05 10:36:28;;;;;;;6.32;2.42;;;;;;;23.44;34.44;99614.81;5105285;28;20482;-63
2023/06/05 10:38:56;;;;;;;7.15;2.63;;;;;;;24.38;33.97;99608.06;5097402;28;20122;-63
2023/06/05 10:41:25;;;;;;;5.13;2.53;;;;;;;24.19;33.79;99602.94;5097109;28;20133;-62
2023/06/05 10:43:55;;;;;;;5.78;2.63;;;;;;;24.38;33.17;99613.56;5099564;28;20035;-62
2023/06/05 10:46:35;;;;;;;14.05;2.78;;;;;;;24.46;33.36;99602.63;5099699;28;20150;-62
2023/06/05 10:49:17;;;;;;;9.10;2.53;;;;;;;24.10;35.11;99597.47;5099251;28;20040;-62
2023/06/05 10:51:45;;;;;;;10.55;2.60;;;;;;;24.70;34.24;99593.03;5105645;28;20043;-63
2023/06/05 10:54:15;;;;;;;12.13;2.65;;;;;;;24.29;35.72;99597.94;5108519;28;20124;-63
2023/06/05 10:56:56;;;;;;;7.05;2.38;;;;;;;25.07;33.27;99601.59;5104692;28;20039;-63
2023/06/05 10:59:25;;;;;;;9.88;2.92;;;;;;;23.72;34.40;99600.03;5100618;28;20044;-63
2023/06/05 11:02:23;;;;;;;5.53;2.70;;;;;;;24.62;33.74;99594.66;5105137;28;20063;-63
2023/06/05 11:05:12;;;;;;;8.88;2.78;;;;;;;24.29;32.37;99595.22;5086220;28;20093;-63
2023/06/05 11:07:39;;;;;;;5.57;2.50;;;;;;;25.53;31.89;99589.72;5102999;28;20505;-63
2023/06/05 11:10:15;;;;;;;8.25;2.70;;;;;;;25.00;32.69;99591.13;5104867;28;20058;-64
2023/06/05 11:13:01;;;;;;;6.57;2.33;;;;;;;25.15;32.56;99589.75;5104677;28;20042;-63
2023/06/05 11:15:41;;;;;;;5.63;2.65;;;;;;;23.21;34.50;99575.00;5102995;28;20048;-63
2023/06/05 11:18:30;;;;;;;10.70;3.00;;;;;;;23.97;34.39;99580.09;5104894;28;20088;-63
2023/06/05 11:20:58;;;;;;;34.92;4.30;;;;;;;25.10;33.97;99585.25;5103858;28;20067;-63
2023/06/05 11:23:27;;;;;;;7.10;2.80;;;;;;;24.36;33.22;99582.94;5101772;28;20044;-63
2023/06/05 11:25:57;;;;;;;10.02;2.88;;;;;;;24.82;34.39;99573.16;5104140;28;20128;-63
2023/06/05 11:28:46;;;;;;;6.25;2.50;;;;;;;24.19;32.89;99562.69;5093884;28;20066;-63
2023/06/05 11:31:15;;;;;;;8.80;3.00;;;;;;;24.74;32.83;99567.38;5099379;28;20043;-62
2023/06/05 11:33:42;;;;;;;8.98;2.85;;;;;;;25.21;32.34;99562.97;5101429;28;20040;-62
2023/06/05 11:36:11;;;;;;;8.20;2.55;;;;;;;25.73;31.97;99557.13;5103406;28;20035;-63
2023/06/05 11:38:39;;;;;;;7.40;2.50;;;;;;;26.08;30.24;99562.31;5105769;28;20044;-62
2023/06/05 11:41:08;;;;;;;5.63;2.53;;;;;;;25.61;31.25;99568.84;5098415;28;20044;-61